^^
Meteo Knjazevac Station Historical Data
Daily Summary for February 7, 2022 Units:  Both    English   Metric
Daily Weekly Monthly Yearly Custom
  High: Low: Average:
Temperature: 91.1 °F /  32.8 °C 63.1 °F /  17.3 °C 75.5 °F /  24.2 °C
Dew Point: 71.2 °F /  21.8 °C 57.9 °F /  14.4 °C 64.9 °F /  18.3 °C
Humidity: 92.6% 49% 71%
Wind Speed: 17mph /  27.4km/h - 3.9mph /  6.3km/h
Wind Gust: 17mph /  27.4km/h - -
Wind- - South
Pressure: 30.06 in /  1017.8 hPa 29.94 in /  1013.8 hPa -
Precipitation: 0.00 in /  0 mm    
Historical Graphs
 
 
Tabular Data for February 7, 2022
Time Temperature Dew Point Pressure Wind Wind Speed Wind Gust Humidity Rainfall Rate (Hourly) solar Conditions
00:04 72.7 °F /  22.6 °C 59.8 °F /  15.4 °C 29.95in /  1014.1hPa West 4.4mph /  7.1km/h 4.2mph /  6.8km/h 64% 0.00in /  0mm 0 W/m2
00:09 72.9 °F /  22.7 °C 60 °F /  15.6 °C 29.95in /  1014.1hPa West 3mph /  4.8km/h 6mph /  9.7km/h 64% 0.00in /  0mm 0 W/m2
00:14 72.9 °F /  22.7 °C 59.8 °F /  15.4 °C 29.95in /  1014.1hPa NW 2.3mph /  3.7km/h 3mph /  4.8km/h 63.6% 0.00in /  0mm 0 W/m2
00:19 72.9 °F /  22.7 °C 59.7 °F /  15.4 °C 29.95in /  1014.1hPa SSW 1.2mph /  1.9km/h 2mph /  3.2km/h 63.5% 0.00in /  0mm 0 W/m2
00:24 72.9 °F /  22.7 °C 59.9 °F /  15.5 °C 29.95in /  1014.1hPa SW 2.3mph /  3.7km/h 2.2mph /  3.5km/h 63.8% 0.00in /  0mm 0 W/m2
00:29 72.8 °F /  22.7 °C 60.3 °F /  15.7 °C 29.94in /  1013.8hPa West 1.2mph /  1.9km/h 2mph /  3.2km/h 64.8% 0.00in /  0mm 0 W/m2
00:34 72.8 °F /  22.7 °C 60.3 °F /  15.7 °C 29.95in /  1014.1hPa NNW 3.3mph /  5.3km/h 3.6mph /  5.8km/h 64.9% 0.00in /  0mm 0 W/m2
00:39 73 °F /  22.8 °C 60.2 °F /  15.7 °C 29.95in /  1014.1hPa NNE 2mph /  3.2km/h 5mph /  8km/h 64.3% 0.00in /  0mm 0 W/m2
00:44 72.9 °F /  22.7 °C 60.5 °F /  15.8 °C 29.95in /  1014.1hPa NNE 1.2mph /  1.9km/h 2mph /  3.2km/h 65% 0.00in /  0mm 0 W/m2
00:49 72.8 °F /  22.7 °C 60.3 °F /  15.7 °C 29.95in /  1014.1hPa NW 2.2mph /  3.5km/h 2.2mph /  3.5km/h 65% 0.00in /  0mm 0 W/m2
00:54 72.4 °F /  22.4 °C 60 °F /  15.6 °C 29.95in /  1014.1hPa West 2.7mph /  4.3km/h 3mph /  4.8km/h 65% 0.00in /  0mm 0 W/m2
00:59 72.3 °F /  22.4 °C 59.9 °F /  15.5 °C 29.95in /  1014.1hPa ENE 1.7mph /  2.7km/h 3mph /  4.8km/h 65% 0.00in /  0mm 0 W/m2
01:04 72.3 °F /  22.4 °C 59.9 °F /  15.5 °C 29.95in /  1014.1hPa NE 4.1mph /  6.6km/h 3mph /  4.8km/h 65% 0.00in /  0mm 0 W/m2
01:09 72.3 °F /  22.4 °C 60 °F /  15.6 °C 29.95in /  1014.1hPa NE 4mph /  6.4km/h 5mph /  8km/h 65.1% 0.00in /  0mm 0 W/m2
01:14 72.5 °F /  22.5 °C 60.9 °F /  16.1 °C 29.95in /  1014.1hPa NE 2.7mph /  4.3km/h 4mph /  6.4km/h 67% 0.00in /  0mm 0 W/m2
01:19 72.5 °F /  22.5 °C 60.9 °F /  16.1 °C 29.95in /  1014.1hPa NNE 1.9mph /  3.1km/h 3mph /  4.8km/h 67% 0.00in /  0mm 0 W/m2
01:24 72.4 °F /  22.4 °C 60.8 °F /  16 °C 29.95in /  1014.1hPa WNW 0.9mph /  1.4km/h 2mph /  3.2km/h 67% 0.00in /  0mm 0 W/m2
01:29 72.3 °F /  22.4 °C 60.7 °F /  15.9 °C 29.95in /  1014.1hPa NW 2mph /  3.2km/h 2mph /  3.2km/h 67% 0.00in /  0mm 0 W/m2
01:34 72.2 °F /  22.3 °C 61 °F /  16.1 °C 29.95in /  1014.1hPa North 1.2mph /  1.9km/h 3mph /  4.8km/h 67.7% 0.00in /  0mm 0 W/m2
01:39 72 °F /  22.2 °C 60.9 °F /  16.1 °C 29.95in /  1014.1hPa North 1.9mph /  3.1km/h 1.1mph /  1.8km/h 68% 0.00in /  0mm 0 W/m2
01:44 71.8 °F /  22.1 °C 60.6 °F /  15.9 °C 29.95in /  1014.1hPa North 1.2mph /  1.9km/h 2mph /  3.2km/h 68% 0.00in /  0mm 0 W/m2
01:49 71.6 °F /  22 °C 60.5 °F /  15.8 °C 29.95in /  1014.1hPa SE 1.3mph /  2.1km/h 2mph /  3.2km/h 68% 0.00in /  0mm 0 W/m2
01:54 71.3 °F /  21.8 °C 60.4 °F /  15.8 °C 29.95in /  1014.1hPa SW 2.4mph /  3.9km/h 2mph /  3.2km/h 68.5% 0.00in /  0mm 0 W/m2
01:59 71.1 °F /  21.7 °C 60.4 °F /  15.8 °C 29.95in /  1014.1hPa West 3.7mph /  6km/h 3.1mph /  5km/h 69% 0.00in /  0mm 0 W/m2
02:04 70.8 °F /  21.6 °C 60.3 °F /  15.7 °C 29.95in /  1014.1hPa West 3.9mph /  6.3km/h 5mph /  8km/h 69.4% 0.00in /  0mm 0 W/m2
02:09 70.4 °F /  21.3 °C 60.2 °F /  15.7 °C 29.95in /  1014.1hPa West 5.6mph /  9km/h 5mph /  8km/h 70% 0.00in /  0mm 0 W/m2
02:14 70.1 °F /  21.2 °C 60.5 °F /  15.8 °C 29.95in /  1014.1hPa West 3.6mph /  5.8km/h 2.7mph /  4.3km/h 71.7% 0.00in /  0mm 0 W/m2
02:19 70 °F /  21.1 °C 59.8 °F /  15.4 °C 29.95in /  1014.1hPa NW 2.1mph /  3.4km/h 5mph /  8km/h 70.4% 0.00in /  0mm 0 W/m2
02:24 69.8 °F /  21 °C 60.3 °F /  15.7 °C 29.95in /  1014.1hPa North 0.5mph /  0.8km/h 2mph /  3.2km/h 71.6% 0.00in /  0mm 0 W/m2
02:29 69.7 °F /  20.9 °C 60.3 °F /  15.7 °C 29.96in /  1014.4hPa North 1.4mph /  2.3km/h 2mph /  3.2km/h 72.1% 0.00in /  0mm 0 W/m2
02:34 69.4 °F /  20.8 °C 60.4 °F /  15.8 °C 29.95in /  1014.1hPa NNW 1.1mph /  1.8km/h 0.9mph /  1.4km/h 73% 0.00in /  0mm 0 W/m2
02:39 69.2 °F /  20.7 °C 60.5 °F /  15.8 °C 29.96in /  1014.4hPa Calm   2mph /  3.2km/h 73.9% 0.00in /  0mm 0 W/m2
02:44 69 °F /  20.6 °C 60.4 °F /  15.8 °C 29.96in /  1014.4hPa Calm     74% 0.00in /  0mm 0 W/m2
02:49 68.8 °F /  20.4 °C 60.3 °F /  15.7 °C 29.96in /  1014.4hPa SW 1.5mph /  2.4km/h 1.1mph /  1.8km/h 74.4% 0.00in /  0mm 0 W/m2
02:54 68.5 °F /  20.3 °C 60.3 °F /  15.7 °C 29.96in /  1014.4hPa WSW 1.4mph /  2.3km/h 2mph /  3.2km/h 75% 0.00in /  0mm 0 W/m2
02:59 68.3 °F /  20.2 °C 60 °F /  15.6 °C 29.96in /  1014.4hPa NW 2mph /  3.2km/h 2mph /  3.2km/h 74.9% 0.00in /  0mm 0 W/m2
03:04 68.2 °F /  20.1 °C 59.9 °F /  15.5 °C 29.96in /  1014.4hPa North 2.3mph /  3.7km/h 2mph /  3.2km/h 74.9% 0.00in /  0mm 0 W/m2
03:09 67.9 °F /  19.9 °C 60.2 °F /  15.7 °C 29.97in /  1014.8hPa NNW 1.2mph /  1.9km/h 2mph /  3.2km/h 76.2% 0.00in /  0mm 0 W/m2
03:14 67.7 °F /  19.8 °C 60.3 °F /  15.7 °C 29.97in /  1014.8hPa West 1.2mph /  1.9km/h 1.1mph /  1.8km/h 77% 0.00in /  0mm 0 W/m2
03:19 67.5 °F /  19.7 °C 60.1 °F /  15.6 °C 29.97in /  1014.8hPa WNW 1.8mph /  2.9km/h 1.3mph /  2.1km/h 77% 0.00in /  0mm 0 W/m2
03:24 67.4 °F /  19.7 °C 59.9 °F /  15.5 °C 29.97in /  1014.8hPa North 1.2mph /  1.9km/h 2mph /  3.2km/h 77% 0.00in /  0mm 0 W/m2
03:29 67.3 °F /  19.6 °C 59.8 °F /  15.4 °C 29.97in /  1014.8hPa North 1mph /  1.6km/h 2mph /  3.2km/h 77% 0.00in /  0mm 0 W/m2
03:34 67.1 °F /  19.5 °C 59.8 °F /  15.4 °C 29.97in /  1014.8hPa North 2.2mph /  3.5km/h 2.7mph /  4.3km/h 77.5% 0.00in /  0mm 0 W/m2
03:39 67 °F /  19.4 °C 59.9 °F /  15.5 °C 29.97in /  1014.8hPa NNE 3.1mph /  5km/h 4mph /  6.4km/h 78% 0.00in /  0mm 0 W/m2
03:44 66.9 °F /  19.4 °C 59.9 °F /  15.5 °C 29.97in /  1014.8hPa NNE 2.2mph /  3.5km/h 3mph /  4.8km/h 78.3% 0.00in /  0mm 0 W/m2
03:49 67 °F /  19.4 °C 60 °F /  15.6 °C 29.97in /  1014.8hPa NNE 1.8mph /  2.9km/h 3mph /  4.8km/h 78.3% 0.00in /  0mm 0 W/m2
03:54 66.7 °F /  19.3 °C 59.7 °F /  15.4 °C 29.97in /  1014.8hPa NNW 2.3mph /  3.7km/h 2mph /  3.2km/h 78% 0.00in /  0mm 0 W/m2
03:59 66.4 °F /  19.1 °C 59.3 °F /  15.2 °C 29.97in /  1014.8hPa WSW 2.6mph /  4.2km/h 3mph /  4.8km/h 78% 0.00in /  0mm 0 W/m2
04:04 66 °F /  18.9 °C 59.3 °F /  15.2 °C 29.97in /  1014.8hPa West 0.6mph /  1km/h 3mph /  4.8km/h 79% 0.00in /  0mm 0 W/m2
04:09 65.7 °F /  18.7 °C 59 °F /  15 °C 29.98in /  1015.1hPa North 1.3mph /  2.1km/h 1.3mph /  2.1km/h 79% 0.00in /  0mm 0 W/m2
04:14 65.7 °F /  18.7 °C 59 °F /  15 °C 29.98in /  1015.1hPa North 1.2mph /  1.9km/h 2mph /  3.2km/h 79% 0.00in /  0mm 0 W/m2
04:19 65.5 °F /  18.6 °C 58.8 °F /  14.9 °C 29.98in /  1015.1hPa NNW 1.4mph /  2.3km/h 2mph /  3.2km/h 79% 0.00in /  0mm 0 W/m2
04:24 65.5 °F /  18.6 °C 58.8 °F /  14.9 °C 29.98in /  1015.1hPa NNW 0.8mph /  1.3km/h 2mph /  3.2km/h 79% 0.00in /  0mm 0 W/m2
04:29 65.4 °F /  18.6 °C 58.9 °F /  14.9 °C 29.98in /  1015.1hPa North 1.3mph /  2.1km/h 2mph /  3.2km/h 79.4% 0.00in /  0mm 0 W/m2
04:34 65.2 °F /  18.4 °C 58.9 °F /  14.9 °C 29.98in /  1015.1hPa North 0.9mph /  1.4km/h 0.4mph /  0.6km/h 80% 0.00in /  0mm 0 W/m2
04:39 65 °F /  18.3 °C 58.7 °F /  14.8 °C 29.98in /  1015.1hPa WNW 0.3mph /  0.5km/h 1.1mph /  1.8km/h 80% 0.00in /  0mm 0 W/m2
04:44 64.8 °F /  18.2 °C 58.4 °F /  14.7 °C 29.98in /  1015.1hPa West 1.2mph /  1.9km/h 1.1mph /  1.8km/h 80% 0.00in /  0mm 0 W/m2
04:49 64.6 °F /  18.1 °C 58.4 °F /  14.7 °C 29.98in /  1015.1hPa NW 0.2mph /  0.3km/h 2mph /  3.2km/h 80.2% 0.00in /  0mm 0 W/m2
04:54 64.4 °F /  18 °C 58.5 °F /  14.7 °C 29.98in /  1015.1hPa NW 1mph /  1.6km/h 1mph /  1.6km/h 81% 0.00in /  0mm 0 W/m2
04:59 64.2 °F /  17.9 °C 58.3 °F /  14.6 °C 29.98in /  1015.1hPa WSW 2.1mph /  3.4km/h 2mph /  3.2km/h 81% 0.00in /  0mm 0 W/m2
05:04 64 °F /  17.8 °C 58.1 °F /  14.5 °C 29.98in /  1015.1hPa WSW 0.2mph /  0.3km/h 0.7mph /  1.1km/h 81% 0.00in /  0mm 0 W/m2
05:09 63.9 °F /  17.7 °C 58.5 °F /  14.7 °C 29.98in /  1015.1hPa North 0.7mph /  1.1km/h 0.7mph /  1.1km/h 82.5% 0.00in /  0mm 0 W/m2
05:14 63.8 °F /  17.7 °C 58.5 °F /  14.7 °C 29.98in /  1015.1hPa NW 1.9mph /  3.1km/h 2mph /  3.2km/h 83% 0.00in /  0mm 0 W/m2
05:19 63.7 °F /  17.6 °C 58.4 °F /  14.7 °C 29.99in /  1015.5hPa West 2mph /  3.2km/h 2mph /  3.2km/h 83% 0.00in /  0mm 1 W/m2
05:24 63.5 °F /  17.5 °C 58.2 °F /  14.6 °C 29.98in /  1015.1hPa West 0.7mph /  1.1km/h 2mph /  3.2km/h 83% 0.00in /  0mm 3 W/m2
05:29 63.5 °F /  17.5 °C 58.2 °F /  14.6 °C 29.99in /  1015.5hPa WSW 1.3mph /  2.1km/h 2mph /  3.2km/h 83% 0.00in /  0mm 4 W/m2
05:34 63.4 °F /  17.4 °C 58.2 °F /  14.6 °C 29.99in /  1015.5hPa NNW 1.6mph /  2.6km/h 2mph /  3.2km/h 83% 0.00in /  0mm 6 W/m2
05:39 63.3 °F /  17.4 °C 58.1 °F /  14.5 °C 29.99in /  1015.5hPa North 0.2mph /  0.3km/h 0.7mph /  1.1km/h 83% 0.00in /  0mm 10 W/m2
05:44 63.1 °F /  17.3 °C 57.9 °F /  14.4 °C 29.99in /  1015.5hPa Calm     83% 0.00in /  0mm 13 W/m2
05:49 63.1 °F /  17.3 °C 58 °F /  14.4 °C 29.99in /  1015.5hPa North 0.8mph /  1.3km/h 1.1mph /  1.8km/h 83.2% 0.00in /  0mm 18 W/m2
05:54 63.1 °F /  17.3 °C 58.2 °F /  14.6 °C 29.99in /  1015.5hPa North 1.5mph /  2.4km/h 2mph /  3.2km/h 84% 0.00in /  0mm 20 W/m2
05:59 63.1 °F /  17.3 °C 58.2 °F /  14.6 °C 29.99in /  1015.5hPa North 1.3mph /  2.1km/h 2mph /  3.2km/h 84% 0.00in /  0mm 26 W/m2
06:04 63.1 °F /  17.3 °C 58.2 °F /  14.6 °C 30.00in /  1015.8hPa NNW 0.9mph /  1.4km/h 2mph /  3.2km/h 84% 0.00in /  0mm 34 W/m2
06:09 63.3 °F /  17.4 °C 58.4 °F /  14.7 °C 30.00in /  1015.8hPa WNW 1.4mph /  2.3km/h 2mph /  3.2km/h 84% 0.00in /  0mm 43 W/m2
06:14 63.2 °F /  17.3 °C 58.3 °F /  14.6 °C 30.00in /  1015.8hPa WNW 2.2mph /  3.5km/h 2mph /  3.2km/h 84% 0.00in /  0mm 54 W/m2
06:19 63.1 °F /  17.3 °C 58.2 °F /  14.6 °C 30.01in /  1016.1hPa WNW 2.2mph /  3.5km/h 1.3mph /  2.1km/h 84% 0.00in /  0mm 62 W/m2
06:24 63.1 °F /  17.3 °C 58.2 °F /  14.6 °C 30.01in /  1016.1hPa WNW 1.9mph /  3.1km/h 2mph /  3.2km/h 84% 0.00in /  0mm 73 W/m2
06:29 63.1 °F /  17.3 °C 58.2 °F /  14.6 °C 30.01in /  1016.1hPa WNW 2.3mph /  3.7km/h 2mph /  3.2km/h 84% 0.00in /  0mm 83 W/m2
06:34 63.1 °F /  17.3 °C 58.2 °F /  14.6 °C 30.01in /  1016.1hPa West 1.8mph /  2.9km/h 2mph /  3.2km/h 84% 0.00in /  0mm 91 W/m2
06:39 63.1 °F /  17.3 °C 58.2 °F /  14.6 °C 30.01in /  1016.1hPa West 2mph /  3.2km/h 2mph /  3.2km/h 84% 0.00in /  0mm 102 W/m2
06:44 63.3 °F /  17.4 °C 58.4 °F /  14.7 °C 30.01in /  1016.1hPa NNW 1.2mph /  1.9km/h 2mph /  3.2km/h 84% 0.00in /  0mm 102 W/m2
06:49 63.8 °F /  17.7 °C 58.8 °F /  14.9 °C 30.01in /  1016.1hPa NNE 2.3mph /  3.7km/h 2mph /  3.2km/h 84% 0.00in /  0mm 73 W/m2
06:54 64 °F /  17.8 °C 59 °F /  15 °C 30.01in /  1016.1hPa SE 2.3mph /  3.7km/h 2mph /  3.2km/h 83.7% 0.00in /  0mm 58 W/m2
06:59 64 °F /  17.8 °C 59.1 °F /  15.1 °C 30.01in /  1016.1hPa SW 2.3mph /  3.7km/h 3mph /  4.8km/h 84% 0.00in /  0mm 63 W/m2
07:04 64 °F /  17.8 °C 59.2 °F /  15.1 °C 30.01in /  1016.1hPa WSW 2.3mph /  3.7km/h 1.6mph /  2.6km/h 84.3% 0.00in /  0mm 70 W/m2
07:09 64 °F /  17.8 °C 59.2 °F /  15.1 °C 30.01in /  1016.1hPa West 2.3mph /  3.7km/h 2mph /  3.2km/h 84.2% 0.00in /  0mm 95 W/m2
07:14 64.1 °F /  17.8 °C 59.2 °F /  15.1 °C 30.01in /  1016.1hPa West 1.4mph /  2.3km/h 2mph /  3.2km/h 83.8% 0.00in /  0mm 142 W/m2
07:19 64.4 °F /  18 °C 59.4 °F /  15.2 °C 30.02in /  1016.5hPa NNW 2.9mph /  4.7km/h 2.7mph /  4.3km/h 83.7% 0.00in /  0mm 163 W/m2
07:24 64.9 °F /  18.3 °C 59.9 °F /  15.5 °C 30.02in /  1016.5hPa North 1.2mph /  1.9km/h 4mph /  6.4km/h 83.8% 0.00in /  0mm 272 W/m2
07:29 65.6 °F /  18.7 °C 60.4 °F /  15.8 °C 30.02in /  1016.5hPa ENE 0.7mph /  1.1km/h 2mph /  3.2km/h 83.2% 0.00in /  0mm 282 W/m2
07:34 66 °F /  18.9 °C 60.1 °F /  15.6 °C 30.02in /  1016.5hPa East 0.8mph /  1.3km/h 1mph /  1.6km/h 81.5% 0.00in /  0mm 293 W/m2
07:39 66.5 °F /  19.2 °C 60.5 °F /  15.8 °C 30.02in /  1016.5hPa WNW 1mph /  1.6km/h 2mph /  3.2km/h 81% 0.00in /  0mm 317 W/m2
07:44 67 °F /  19.4 °C 61 °F /  16.1 °C 30.02in /  1016.5hPa NW 1.6mph /  2.6km/h 2mph /  3.2km/h 81% 0.00in /  0mm 317 W/m2
07:49 67.5 °F /  19.7 °C 61.2 °F /  16.2 °C 30.03in /  1016.8hPa NNW 1.3mph /  2.1km/h 2mph /  3.2km/h 80.4% 0.00in /  0mm 273 W/m2
07:54 68 °F /  20 °C 61.4 °F /  16.3 °C 30.03in /  1016.8hPa NW 1.1mph /  1.8km/h 2mph /  3.2km/h 79.5% 0.00in /  0mm 197 W/m2
07:59 68.4 °F /  20.2 °C 61.6 °F /  16.4 °C 30.03in /  1016.8hPa NW 0.7mph /  1.1km/h 2mph /  3.2km/h 79% 0.00in /  0mm 213 W/m2
08:04 68.8 °F /  20.4 °C 61.9 °F /  16.6 °C 30.03in /  1016.8hPa West 1.4mph /  2.3km/h 2mph /  3.2km/h 78.5% 0.00in /  0mm 202 W/m2
08:09 69.1 °F /  20.6 °C 62 °F /  16.7 °C 30.03in /  1016.8hPa WSW 2.1mph /  3.4km/h 2mph /  3.2km/h 78.4% 0.00in /  0mm 198 W/m2
08:14 69.5 °F /  20.8 °C 62.4 °F /  16.9 °C 30.03in /  1016.8hPa North 2.6mph /  4.2km/h 3mph /  4.8km/h 78% 0.00in /  0mm 202 W/m2
08:19 69.8 °F /  21 °C 62.6 °F /  17 °C 30.03in /  1016.8hPa NE 3mph /  4.8km/h 3mph /  4.8km/h 77.8% 0.00in /  0mm 214 W/m2
08:24 70.2 °F /  21.2 °C 62.8 °F /  17.1 °C 30.03in /  1016.8hPa NNE 3.4mph /  5.5km/h 5mph /  8km/h 77.4% 0.00in /  0mm 280 W/m2
08:29 70.5 °F /  21.4 °C 63 °F /  17.2 °C 30.03in /  1016.8hPa NNE 3.1mph /  5km/h 4mph /  6.4km/h 77.1% 0.00in /  0mm 252 W/m2
08:34 70.8 °F /  21.6 °C 63.2 °F /  17.3 °C 30.03in /  1016.8hPa NE 1mph /  1.6km/h 3mph /  4.8km/h 77% 0.00in /  0mm 239 W/m2
08:39 71.2 °F /  21.8 °C 62.8 °F /  17.1 °C 30.03in /  1016.8hPa ENE 3.1mph /  5km/h 2.2mph /  3.5km/h 75% 0.00in /  0mm 230 W/m2
08:44 71.4 °F /  21.9 °C 63.1 °F /  17.3 °C 30.03in /  1016.8hPa ENE 4.6mph /  7.4km/h 4.7mph /  7.6km/h 75% 0.00in /  0mm 202 W/m2
08:49 71.6 °F /  22 °C 63.2 °F /  17.3 °C 30.03in /  1016.8hPa NE 4.1mph /  6.6km/h 6mph /  9.7km/h 74.7% 0.00in /  0mm 208 W/m2
08:54 71.8 °F /  22.1 °C 63.1 °F /  17.3 °C 30.03in /  1016.8hPa NE 4.7mph /  7.6km/h 5mph /  8km/h 74.4% 0.00in /  0mm 194 W/m2
08:59 71.8 °F /  22.1 °C 63.1 °F /  17.3 °C 30.04in /  1017.2hPa NE 4.2mph /  6.8km/h 6mph /  9.7km/h 74.4% 0.00in /  0mm 165 W/m2
09:04 71.9 °F /  22.2 °C 63.5 °F /  17.5 °C 30.04in /  1017.2hPa NE 4.1mph /  6.6km/h 6mph /  9.7km/h 75% 0.00in /  0mm 152 W/m2
09:09 72 °F /  22.2 °C 63.6 °F /  17.6 °C 30.04in /  1017.2hPa NNE 4.2mph /  6.8km/h 5mph /  8km/h 75% 0.00in /  0mm 183 W/m2
09:14 72.2 °F /  22.3 °C 64 °F /  17.8 °C 30.04in /  1017.2hPa NNE 4mph /  6.4km/h 5mph /  8km/h 75.4% 0.00in /  0mm 233 W/m2
09:19 72.5 °F /  22.5 °C 64.1 °F /  17.8 °C 30.04in /  1017.2hPa NNE 5.5mph /  8.9km/h 5mph /  8km/h 75% 0.00in /  0mm 263 W/m2
09:24 73 °F /  22.8 °C 64.5 °F /  18.1 °C 30.04in /  1017.2hPa NNE 5.2mph /  8.4km/h 6mph /  9.7km/h 74.8% 0.00in /  0mm 296 W/m2
09:29 73.5 °F /  23.1 °C 64.9 °F /  18.3 °C 30.04in /  1017.2hPa NNE 4.1mph /  6.6km/h 6mph /  9.7km/h 74.5% 0.00in /  0mm 387 W/m2
09:34 73.9 °F /  23.3 °C 65.1 °F /  18.4 °C 30.04in /  1017.2hPa NNE 3.3mph /  5.3km/h 5mph /  8km/h 74% 0.00in /  0mm 290 W/m2
09:39 74.3 °F /  23.5 °C 65.1 °F /  18.4 °C 30.04in /  1017.2hPa NNE 5.3mph /  8.5km/h 3.6mph /  5.8km/h 73% 0.00in /  0mm 242 W/m2
09:44 74.4 °F /  23.6 °C 65.2 °F /  18.4 °C 30.04in /  1017.2hPa NNE 3.8mph /  6.1km/h 6mph /  9.7km/h 73% 0.00in /  0mm 238 W/m2
09:49 74.5 °F /  23.6 °C 65.5 °F /  18.6 °C 30.04in /  1017.2hPa NNE 3.8mph /  6.1km/h 5mph /  8km/h 73.6% 0.00in /  0mm 544 W/m2
09:54 74.8 °F /  23.8 °C 65 °F /  18.3 °C 30.04in /  1017.2hPa NNE 2.4mph /  3.9km/h 3mph /  4.8km/h 71.6% 0.00in /  0mm 544 W/m2
09:59 75 °F /  23.9 °C 65.2 °F /  18.4 °C 30.04in /  1017.2hPa WNW 2.4mph /  3.9km/h 3mph /  4.8km/h 71.5% 0.00in /  0mm 222 W/m2
10:04 75.1 °F /  23.9 °C 64.6 °F /  18.1 °C 30.04in /  1017.2hPa SW 2.2mph /  3.5km/h 1.8mph /  2.9km/h 70% 0.00in /  0mm 213 W/m2
10:09 75.2 °F /  24 °C 64.7 °F /  18.2 °C 30.04in /  1017.2hPa West 2.5mph /  4km/h 2mph /  3.2km/h 69.8% 0.00in /  0mm 276 W/m2
10:14 75.5 °F /  24.2 °C 64.5 °F /  18.1 °C 30.04in /  1017.2hPa West 2.3mph /  3.7km/h 3mph /  4.8km/h 68.8% 0.00in /  0mm 234 W/m2
10:19 75.7 °F /  24.3 °C 64.7 °F /  18.2 °C 30.04in /  1017.2hPa West 1.6mph /  2.6km/h 3mph /  4.8km/h 68.8% 0.00in /  0mm 226 W/m2
10:24 75.8 °F /  24.3 °C 64.5 °F /  18.1 °C 30.04in /  1017.2hPa West 1.5mph /  2.4km/h 2mph /  3.2km/h 68% 0.00in /  0mm 261 W/m2
10:29 76 °F /  24.4 °C 64.9 °F /  18.3 °C 30.04in /  1017.2hPa West 2.4mph /  3.9km/h 2mph /  3.2km/h 68.5% 0.00in /  0mm 228 W/m2
10:34 76.1 °F /  24.5 °C 65 °F /  18.3 °C 30.04in /  1017.2hPa SW 3mph /  4.8km/h 3mph /  4.8km/h 68.5% 0.00in /  0mm 277 W/m2
10:39 76.2 °F /  24.6 °C 65.3 °F /  18.5 °C 30.04in /  1017.2hPa South 2.5mph /  4km/h 4mph /  6.4km/h 69% 0.00in /  0mm 431 W/m2
10:44 76.6 °F /  24.8 °C 65.8 °F /  18.8 °C 30.04in /  1017.2hPa SSE 3.7mph /  6km/h 3.1mph /  5km/h 69.2% 0.00in /  0mm 843 W/m2
10:49 77.4 °F /  25.2 °C 66.2 °F /  19 °C 30.04in /  1017.2hPa SSE 3.6mph /  5.8km/h 2.9mph /  4.7km/h 68.5% 0.00in /  0mm 739 W/m2
10:54 77.6 °F /  25.3 °C 66.2 °F /  19 °C 30.04in /  1017.2hPa SSE 4.4mph /  7.1km/h 4mph /  6.4km/h 67.9% 0.00in /  0mm 642 W/m2
10:59 77.7 °F /  25.4 °C 65.9 °F /  18.8 °C 30.04in /  1017.2hPa SSE 3.5mph /  5.6km/h 5mph /  8km/h 67% 0.00in /  0mm 578 W/m2
11:04 78.1 °F /  25.6 °C 66.1 °F /  18.9 °C 30.04in /  1017.2hPa SSE 3.4mph /  5.5km/h 2.5mph /  4km/h 66.9% 0.00in /  0mm 420 W/m2
11:09 78.2 °F /  25.7 °C 66.3 °F /  19.1 °C 30.04in /  1017.2hPa South 3.2mph /  5.1km/h 2mph /  3.2km/h 67% 0.00in /  0mm 401 W/m2
11:14 78.4 °F /  25.8 °C 66 °F /  18.9 °C 30.04in /  1017.2hPa South 2.9mph /  4.7km/h 3mph /  4.8km/h 65.8% 0.00in /  0mm 367 W/m2
11:19 78.6 °F /  25.9 °C 66 °F /  18.9 °C 30.04in /  1017.2hPa South 1.9mph /  3.1km/h 4mph /  6.4km/h 65.3% 0.00in /  0mm 499 W/m2
11:24 79.1 °F /  26.2 °C 66.9 °F /  19.4 °C 30.04in /  1017.2hPa WSW 2.8mph /  4.5km/h 2mph /  3.2km/h 66.3% 0.00in /  0mm 408 W/m2
11:29 79.5 °F /  26.4 °C 66.7 °F /  19.3 °C 30.03in /  1016.8hPa West 2.8mph /  4.5km/h 2.2mph /  3.5km/h 65% 0.00in /  0mm 298 W/m2
11:34 79.7 °F /  26.5 °C 66.8 °F /  19.3 °C 30.04in /  1017.2hPa SW 2.8mph /  4.5km/h 4mph /  6.4km/h 64.8% 0.00in /  0mm 206 W/m2
11:39 79.8 °F /  26.6 °C 66.5 °F /  19.2 °C 30.04in /  1017.2hPa SSW 1.8mph /  2.9km/h 4mph /  6.4km/h 64.2% 0.00in /  0mm 244 W/m2
11:44 79.8 °F /  26.6 °C 66.8 °F /  19.3 °C 30.03in /  1016.8hPa SSE 3.1mph /  5km/h 4mph /  6.4km/h 64.5% 0.00in /  0mm 313 W/m2
11:49 80.1 °F /  26.7 °C 67 °F /  19.4 °C 30.03in /  1016.8hPa ESE 2.9mph /  4.7km/h 4mph /  6.4km/h 64.5% 0.00in /  0mm 697 W/m2
11:54 80.3 °F /  26.8 °C 67.1 °F /  19.5 °C 30.03in /  1016.8hPa ESE 3.1mph /  5km/h 2.5mph /  4km/h 64.1% 0.00in /  0mm 416 W/m2
11:59 80.8 °F /  27.1 °C 67.5 °F /  19.7 °C 30.03in /  1016.8hPa SSE 4.4mph /  7.1km/h 2.7mph /  4.3km/h 64.2% 0.00in /  0mm 433 W/m2
12:04 80.9 °F /  27.2 °C 67.4 °F /  19.7 °C 30.03in /  1016.8hPa SSE 3.6mph /  5.8km/h 2.9mph /  4.7km/h 63.6% 0.00in /  0mm 397 W/m2
12:09 81 °F /  27.2 °C 67.5 °F /  19.7 °C 30.03in /  1016.8hPa SSE 4mph /  6.4km/h 4mph /  6.4km/h 63.8% 0.00in /  0mm 384 W/m2
12:14 81 °F /  27.2 °C 67.3 °F /  19.6 °C 30.03in /  1016.8hPa South 3.6mph /  5.8km/h 5mph /  8km/h 63.2% 0.00in /  0mm 307 W/m2
12:19 80.9 °F /  27.2 °C 67.1 °F /  19.5 °C 30.03in /  1016.8hPa South 3.7mph /  6km/h 4mph /  6.4km/h 63% 0.00in /  0mm 235 W/m2
12:24 80.9 °F /  27.2 °C 67.1 °F /  19.5 °C 30.03in /  1016.8hPa South 3.3mph /  5.3km/h 5mph /  8km/h 63% 0.00in /  0mm 295 W/m2
12:29 81.1 °F /  27.3 °C 67.3 °F /  19.6 °C 30.03in /  1016.8hPa South 3.3mph /  5.3km/h 3mph /  4.8km/h 63.1% 0.00in /  0mm 323 W/m2
12:34 81.4 °F /  27.4 °C 67.6 °F /  19.8 °C 30.03in /  1016.8hPa South 3.2mph /  5.1km/h 4mph /  6.4km/h 63% 0.00in /  0mm 787 W/m2
12:39 81.9 °F /  27.7 °C 68.1 °F /  20.1 °C 30.02in /  1016.5hPa South 4.3mph /  6.9km/h 4mph /  6.4km/h 63.1% 0.00in /  0mm 955 W/m2
12:44 83.2 °F /  28.4 °C 68.8 °F /  20.4 °C 30.02in /  1016.5hPa South 4.7mph /  7.6km/h 5mph /  8km/h 62.1% 0.00in /  0mm 955 W/m2
12:49 84 °F /  28.9 °C 68.5 °F /  20.3 °C 30.02in /  1016.5hPa SSW 3mph /  4.8km/h 6mph /  9.7km/h 59.8% 0.00in /  0mm 996 W/m2
12:54 84.6 °F /  29.2 °C 68.6 °F /  20.3 °C 30.02in /  1016.5hPa South 4.4mph /  7.1km/h 3.4mph /  5.5km/h 58.9% 0.00in /  0mm 1021 W/m2
12:59 85.2 °F /  29.6 °C 69.2 °F /  20.7 °C 30.01in /  1016.1hPa NE 5.1mph /  8.2km/h 6mph /  9.7km/h 58.9% 0.00in /  0mm 1031 W/m2
13:04 86.3 °F /  30.2 °C 69.5 °F /  20.8 °C 30.01in /  1016.1hPa North 6mph /  9.7km/h 3.8mph /  6.1km/h 57.6% 0.00in /  0mm 969 W/m2
13:09 86.8 °F /  30.4 °C 69.9 °F /  21.1 °C 30.01in /  1016.1hPa WNW 3.9mph /  6.3km/h 6mph /  9.7km/h 57.3% 0.00in /  0mm 916 W/m2
13:14 87.1 °F /  30.6 °C 69.5 °F /  20.8 °C 30.01in /  1016.1hPa NNW 4mph /  6.4km/h 5mph /  8km/h 56% 0.00in /  0mm 1050 W/m2
13:19 87.5 °F /  30.8 °C 69.4 °F /  20.8 °C 30.01in /  1016.1hPa WNW 3.7mph /  6km/h 5mph /  8km/h 55.2% 0.00in /  0mm 1055 W/m2
13:24 87.6 °F /  30.9 °C 68.6 °F /  20.3 °C 30.01in /  1016.1hPa WSW 3.8mph /  6.1km/h 6mph /  9.7km/h 53.5% 0.00in /  0mm 587 W/m2
13:29 87.4 °F /  30.8 °C 69.3 °F /  20.7 °C 30.01in /  1016.1hPa WSW 5.8mph /  9.3km/h 5mph /  8km/h 55% 0.00in /  0mm 568 W/m2
13:34 87.2 °F /  30.7 °C 68.6 °F /  20.3 °C 30.00in /  1015.8hPa North 5.9mph /  9.5km/h 7mph /  11.3km/h 54.1% 0.00in /  0mm 218 W/m2
13:39 87.1 °F /  30.6 °C 68.4 °F /  20.2 °C 30.00in /  1015.8hPa NNE 5.9mph /  9.5km/h 7mph /  11.3km/h 53.9% 0.00in /  0mm 301 W/m2
13:44 86.9 °F /  30.5 °C 68.3 °F /  20.2 °C 30.00in /  1015.8hPa NNE 5mph /  8km/h 6mph /  9.7km/h 54.1% 0.00in /  0mm 642 W/m2
13:49 87.2 °F /  30.7 °C 68.6 °F /  20.3 °C 30.00in /  1015.8hPa NNE 4.3mph /  6.9km/h 6mph /  9.7km/h 54.1% 0.00in /  0mm 841 W/m2
13:54 87.4 °F /  30.8 °C 69.1 °F /  20.6 °C 29.99in /  1015.5hPa North 6.4mph /  10.3km/h 5.1mph /  8.2km/h 54.6% 0.00in /  0mm 948 W/m2
13:59 87.7 °F /  30.9 °C 68.8 °F /  20.4 °C 29.99in /  1015.5hPa NNW 4.9mph /  7.9km/h 8mph /  12.9km/h 53.7% 0.00in /  0mm 948 W/m2
14:04 88.1 °F /  31.2 °C 69 °F /  20.6 °C 29.99in /  1015.5hPa NNW 4.2mph /  6.8km/h 6mph /  9.7km/h 53.3% 0.00in /  0mm 994 W/m2
14:09 88.9 °F /  31.6 °C 69.2 °F /  20.7 °C 29.99in /  1015.5hPa NNW 6.5mph /  10.5km/h 4.9mph /  7.9km/h 52.4% 0.00in /  0mm 963 W/m2
14:14 89.1 °F /  31.7 °C 69.6 °F /  20.9 °C 29.99in /  1015.5hPa North 5.6mph /  9km/h 7mph /  11.3km/h 52.8% 0.00in /  0mm 937 W/m2
14:19 89.5 °F /  31.9 °C 69.7 °F /  20.9 °C 29.99in /  1015.5hPa North 7.3mph /  11.7km/h 4.9mph /  7.9km/h 52.3% 0.00in /  0mm 957 W/m2
14:24 89.9 °F /  32.2 °C 68.9 °F /  20.5 °C 29.99in /  1015.5hPa NE 8.3mph /  13.4km/h 8mph /  12.9km/h 50.2% 0.00in /  0mm 953 W/m2
14:28 89.4 °F /  31.9 °C 69.1 °F /  20.6 °C 29.99in /  1015.5hPa ENE 6.6mph /  10.6km/h 9mph /  14.5km/h 51.4% 0.00in /  0mm 212 W/m2
14:34 88.9 °F /  31.6 °C 68.9 °F /  20.5 °C 29.99in /  1015.5hPa NNE 7.3mph /  11.7km/h 9mph /  14.5km/h 52% 0.00in /  0mm 225 W/m2
14:39 88.6 °F /  31.4 °C 68.8 °F /  20.4 °C 29.99in /  1015.5hPa North 5mph /  8km/h 8mph /  12.9km/h 52.1% 0.00in /  0mm 187 W/m2
14:44 88.3 °F /  31.3 °C 68.7 °F /  20.4 °C 29.99in /  1015.5hPa North 5.1mph /  8.2km/h 6mph /  9.7km/h 52.5% 0.00in /  0mm 257 W/m2
14:49 88.3 °F /  31.3 °C 68.4 °F /  20.2 °C 29.99in /  1015.5hPa North 3.6mph /  5.8km/h 6mph /  9.7km/h 52% 0.00in /  0mm 864 W/m2
14:54 88.6 °F /  31.4 °C 69 °F /  20.6 °C 29.99in /  1015.5hPa NNE 5.1mph /  8.2km/h 5mph /  8km/h 52.5% 0.00in /  0mm 859 W/m2
14:59 89.4 °F /  31.9 °C 69.3 °F /  20.7 °C 29.98in /  1015.1hPa North 4.9mph /  7.9km/h 7mph /  11.3km/h 51.7% 0.00in /  0mm 857 W/m2
15:04 89.7 °F /  32.1 °C 69.7 °F /  20.9 °C 29.98in /  1015.1hPa North 6.2mph /  10km/h 7mph /  11.3km/h 52% 0.00in /  0mm 837 W/m2
15:09 90 °F /  32.2 °C 69.3 °F /  20.7 °C 29.98in /  1015.1hPa NNW 3mph /  4.8km/h 8mph /  12.9km/h 50.8% 0.00in /  0mm 769 W/m2
15:14 90.1 °F /  32.3 °C 68.9 °F /  20.5 °C 29.98in /  1015.1hPa North 4.3mph /  6.9km/h 5mph /  8km/h 49.8% 0.00in /  0mm 758 W/m2
15:19 89.8 °F /  32.1 °C 68.7 °F /  20.4 °C 29.97in /  1014.8hPa North 6.5mph /  10.5km/h 5mph /  8km/h 50% 0.00in /  0mm 572 W/m2
15:24 89.2 °F /  31.8 °C 68.3 °F /  20.2 °C 29.97in /  1014.8hPa NW 6.4mph /  10.3km/h 9mph /  14.5km/h 50.3% 0.00in /  0mm 775 W/m2
15:29 89.5 °F /  31.9 °C 68.8 °F /  20.4 °C 29.97in /  1014.8hPa NW 6.5mph /  10.5km/h 7mph /  11.3km/h 50.7% 0.00in /  0mm 784 W/m2
15:34 90 °F /  32.2 °C 69.1 °F /  20.6 °C 29.97in /  1014.8hPa NW 9.2mph /  14.8km/h 8mph /  12.9km/h 50.3% 0.00in /  0mm 758 W/m2
15:39 90.3 °F /  32.4 °C 68.6 °F /  20.3 °C 29.97in /  1014.8hPa NW 5.7mph /  9.2km/h 12mph /  19.3km/h 49.1% 0.00in /  0mm 668 W/m2
15:44 90 °F /  32.2 °C 69.7 °F /  20.9 °C 29.97in /  1014.8hPa NW 8.1mph /  13km/h 9mph /  14.5km/h 51.4% 0.00in /  0mm 662 W/m2
15:49 90.1 °F /  32.3 °C 70.3 °F /  21.3 °C 29.97in /  1014.8hPa WNW 11.3mph /  18.2km/h 13mph /  20.9km/h 52.5% 0.00in /  0mm 700 W/m2
15:54 90.2 °F /  32.3 °C 70.4 °F /  21.3 °C 29.97in /  1014.8hPa WNW 10.6mph /  17.1km/h 13mph /  20.9km/h 52.5% 0.00in /  0mm 714 W/m2
15:59 90.5 °F /  32.5 °C 71 °F /  21.7 °C 29.97in /  1014.8hPa West 9.7mph /  15.6km/h 13mph /  20.9km/h 52.9% 0.00in /  0mm 723 W/m2
16:04 90.8 °F /  32.7 °C 71.1 °F /  21.7 °C 29.96in /  1014.4hPa West 11.3mph /  18.2km/h 12mph /  19.3km/h 52.7% 0.00in /  0mm 661 W/m2
16:09 90.8 °F /  32.7 °C 70.8 °F /  21.6 °C 29.96in /  1014.4hPa WNW 12.8mph /  20.6km/h 9.8mph /  15.8km/h 52.3% 0.00in /  0mm 661 W/m2
16:14 90.7 °F /  32.6 °C 71.2 °F /  21.8 °C 29.96in /  1014.4hPa WNW 11.3mph /  18.2km/h 15mph /  24.1km/h 53% 0.00in /  0mm 627 W/m2
16:19 90.9 °F /  32.7 °C 71 °F /  21.7 °C 29.96in /  1014.4hPa West 12.8mph /  20.6km/h 16mph /  25.7km/h 52.3% 0.00in /  0mm 634 W/m2
16:24 91 °F /  32.8 °C 70.7 °F /  21.5 °C 29.95in /  1014.1hPa West 10.6mph /  17.1km/h 13mph /  20.9km/h 51.5% 0.00in /  0mm 627 W/m2
16:29 91.1 °F /  32.8 °C 69.4 °F /  20.8 °C 29.96in /  1014.4hPa NW 10.6mph /  17.1km/h 12mph /  19.3km/h 49.1% 0.00in /  0mm 498 W/m2
16:34 90.5 °F /  32.5 °C 68.7 °F /  20.4 °C 29.96in /  1014.4hPa North 12.7mph /  20.4km/h 9.4mph /  15.1km/h 49% 0.00in /  0mm 528 W/m2
16:39 90.2 °F /  32.3 °C 69 °F /  20.6 °C 29.96in /  1014.4hPa North 12.8mph /  20.6km/h 14mph /  22.5km/h 49.8% 0.00in /  0mm 534 W/m2
16:44 90.4 °F /  32.4 °C 68.7 °F /  20.4 °C 29.96in /  1014.4hPa North 11.4mph /  18.3km/h 9.2mph /  14.8km/h 49% 0.00in /  0mm 524 W/m2
16:49 90.2 °F /  32.3 °C 69.8 °F /  21 °C 29.96in /  1014.4hPa North 14.9mph /  24km/h 13mph /  20.9km/h 51.3% 0.00in /  0mm 520 W/m2
16:54 89.7 °F /  32.1 °C 70.7 °F /  21.5 °C 29.97in /  1014.8hPa North 12.1mph /  19.5km/h 16mph /  25.7km/h 53.7% 0.00in /  0mm 559 W/m2
16:59 88.9 °F /  31.6 °C 70.2 °F /  21.2 °C 29.97in /  1014.8hPa North 11.5mph /  18.5km/h 14mph /  22.5km/h 54% 0.00in /  0mm 210 W/m2
17:04 88 °F /  31.1 °C 70.2 °F /  21.2 °C 29.97in /  1014.8hPa North 12.7mph /  20.4km/h 14mph /  22.5km/h 55.8% 0.00in /  0mm 174 W/m2
17:09 87.1 °F /  30.6 °C 70.3 °F /  21.3 °C 29.97in /  1014.8hPa North 9.1mph /  14.6km/h 6.3mph /  10.1km/h 57.5% 0.00in /  0mm 165 W/m2
17:14 86.4 °F /  30.2 °C 70 °F /  21.1 °C 29.97in /  1014.8hPa North 10.6mph /  17.1km/h 11mph /  17.7km/h 58.2% 0.00in /  0mm 242 W/m2
17:19 85.8 °F /  29.9 °C 69.9 °F /  21.1 °C 29.97in /  1014.8hPa North 8.7mph /  14km/h 12mph /  19.3km/h 59% 0.00in /  0mm 179 W/m2
17:24 85.4 °F /  29.7 °C 69.4 °F /  20.8 °C 29.97in /  1014.8hPa North 9.1mph /  14.6km/h 11mph /  17.7km/h 59% 0.00in /  0mm 334 W/m2
17:29 84.9 °F /  29.4 °C 69.4 °F /  20.8 °C 29.97in /  1014.8hPa North 10.3mph /  16.6km/h 12mph /  19.3km/h 59.8% 0.00in /  0mm 334 W/m2
17:34 85 °F /  29.4 °C 69.6 °F /  20.9 °C 29.97in /  1014.8hPa NNW 6.8mph /  10.9km/h 12mph /  19.3km/h 59.8% 0.00in /  0mm 317 W/m2
17:39 85.3 °F /  29.6 °C 69.6 °F /  20.9 °C 29.97in /  1014.8hPa North 6mph /  9.7km/h 9mph /  14.5km/h 59.6% 0.00in /  0mm 304 W/m2
17:44 85.3 °F /  29.6 °C 69.3 °F /  20.7 °C 29.97in /  1014.8hPa North 8.1mph /  13km/h 8mph /  12.9km/h 59% 0.00in /  0mm 284 W/m2
17:49 85.4 °F /  29.7 °C 69.6 °F /  20.9 °C 29.97in /  1014.8hPa North 9.1mph /  14.6km/h 9mph /  14.5km/h 59.5% 0.00in /  0mm 282 W/m2
17:54 85.3 °F /  29.6 °C 69.8 °F /  21 °C 29.98in /  1015.1hPa North 7.9mph /  12.7km/h 10mph /  16.1km/h 60% 0.00in /  0mm 261 W/m2
17:59 85.2 °F /  29.6 °C 69.7 °F /  20.9 °C 29.98in /  1015.1hPa NNE 8.8mph /  14.2km/h 10mph /  16.1km/h 60% 0.00in /  0mm 259 W/m2
18:04 85.3 °F /  29.6 °C 70.2 °F /  21.2 °C 29.98in /  1015.1hPa North 5.9mph /  9.5km/h 10mph /  16.1km/h 60.7% 0.00in /  0mm 215 W/m2
18:09 85.2 °F /  29.6 °C 70.4 °F /  21.3 °C 29.98in /  1015.1hPa North 6.2mph /  10km/h 7mph /  11.3km/h 61.3% 0.00in /  0mm 120 W/m2
18:14 85 °F /  29.4 °C 70.5 °F /  21.4 °C 29.99in /  1015.5hPa North 8.2mph /  13.2km/h 8mph /  12.9km/h 62% 0.00in /  0mm 143 W/m2
18:19 84.7 °F /  29.3 °C 70.3 °F /  21.3 °C 29.99in /  1015.5hPa North 8.3mph /  13.4km/h 4.9mph /  7.9km/h 62% 0.00in /  0mm 143 W/m2
18:24 84.6 °F /  29.2 °C 70.2 °F /  21.2 °C 29.99in /  1015.5hPa North 7.7mph /  12.4km/h 9mph /  14.5km/h 62.2% 0.00in /  0mm 106 W/m2
18:29 84.4 °F /  29.1 °C 69.2 °F /  20.7 °C 30.00in /  1015.8hPa North 10.6mph /  17.1km/h 13mph /  20.9km/h 60.4% 0.00in /  0mm 75 W/m2
18:34 83.7 °F /  28.7 °C 68.3 °F /  20.2 °C 30.00in /  1015.8hPa NNE 12.8mph /  20.6km/h 13mph /  20.9km/h 60% 0.00in /  0mm 66 W/m2
18:39 82.6 °F /  28.1 °C 67 °F /  19.4 °C 30.00in /  1015.8hPa ENE 17mph /  27.4km/h 17mph /  27.4km/h 59.3% 0.00in /  0mm 76 W/m2
18:44 82.1 °F /  27.8 °C 67 °F /  19.4 °C 30.00in /  1015.8hPa East 14.1mph /  22.7km/h 10.5mph /  16.9km/h 60.4% 0.00in /  0mm 82 W/m2
18:49 80.6 °F /  27 °C 67 °F /  19.4 °C 30.00in /  1015.8hPa East 10.5mph /  16.9km/h 15mph /  24.1km/h 63.4% 0.00in /  0mm 116 W/m2
18:54 79.9 °F /  26.6 °C 66.7 °F /  19.3 °C 30.00in /  1015.8hPa ESE 7.5mph /  12.1km/h 13mph /  20.9km/h 64.2% 0.00in /  0mm 131 W/m2
18:59 79.7 °F /  26.5 °C 66.9 °F /  19.4 °C 30.01in /  1016.1hPa SE 4.9mph /  7.9km/h 9mph /  14.5km/h 65% 0.00in /  0mm 148 W/m2
19:04 79.5 °F /  26.4 °C 67.1 °F /  19.5 °C 30.01in /  1016.1hPa NE 6.3mph /  10.1km/h 6mph /  9.7km/h 65.8% 0.00in /  0mm 149 W/m2
19:09 79.5 °F /  26.4 °C 67.6 °F /  19.8 °C 30.01in /  1016.1hPa NNW 5.2mph /  8.4km/h 7mph /  11.3km/h 67% 0.00in /  0mm 144 W/m2
19:14 79.2 °F /  26.2 °C 67.9 °F /  19.9 °C 30.01in /  1016.1hPa NNE 5.1mph /  8.2km/h 7mph /  11.3km/h 68.4% 0.00in /  0mm 130 W/m2
19:19 79 °F /  26.1 °C 67.9 °F /  19.9 °C 30.01in /  1016.1hPa East 3.7mph /  6km/h 6mph /  9.7km/h 69% 0.00in /  0mm 115 W/m2
19:24 79 °F /  26.1 °C 67.8 °F /  19.9 °C 30.01in /  1016.1hPa SSE 3.1mph /  5km/h 4mph /  6.4km/h 68.7% 0.00in /  0mm 79 W/m2
19:29 79 °F /  26.1 °C 67.9 °F /  19.9 °C 30.01in /  1016.1hPa South 3.1mph /  5km/h 3mph /  4.8km/h 69% 0.00in /  0mm 60 W/m2
19:34 78.9 °F /  26.1 °C 67.9 °F /  19.9 °C 30.01in /  1016.1hPa SSW 4mph /  6.4km/h 2.7mph /  4.3km/h 69% 0.00in /  0mm 43 W/m2
19:39 78.7 °F /  25.9 °C 67.9 °F /  19.9 °C 30.02in /  1016.5hPa SW 2.7mph /  4.3km/h 5mph /  8km/h 69.6% 0.00in /  0mm 29 W/m2
19:44 78.5 °F /  25.8 °C 68.1 °F /  20.1 °C 30.02in /  1016.5hPa WSW 3.6mph /  5.8km/h 3mph /  4.8km/h 70.4% 0.00in /  0mm 17 W/m2
19:49 78.3 °F /  25.7 °C 68.6 °F /  20.3 °C 30.02in /  1016.5hPa WSW 3.6mph /  5.8km/h 3.4mph /  5.5km/h 72.2% 0.00in /  0mm 8 W/m2
19:54 77.7 °F /  25.4 °C 68.9 °F /  20.5 °C 30.02in /  1016.5hPa SSW 4.6mph /  7.4km/h 5mph /  8km/h 74.5% 0.00in /  0mm 3 W/m2
19:59 77.1 °F /  25.1 °C 68.8 °F /  20.4 °C 30.03in /  1016.8hPa SSE 3.6mph /  5.8km/h 5mph /  8km/h 75.9% 0.00in /  0mm 1 W/m2
20:04 76.5 °F /  24.7 °C 69.1 °F /  20.6 °C 30.03in /  1016.8hPa SSE 3.5mph /  5.6km/h 4mph /  6.4km/h 78% 0.00in /  0mm 0 W/m2
20:09 76.2 °F /  24.6 °C 68.9 °F /  20.5 °C 30.03in /  1016.8hPa SSE 2.6mph /  4.2km/h 2mph /  3.2km/h 78.3% 0.00in /  0mm 0 W/m2
20:14 76.1 °F /  24.5 °C 69 °F /  20.6 °C 30.03in /  1016.8hPa South 3.2mph /  5.1km/h 3mph /  4.8km/h 78.9% 0.00in /  0mm 0 W/m2
20:19 75.7 °F /  24.3 °C 69.1 °F /  20.6 °C 30.03in /  1016.8hPa South 3.4mph /  5.5km/h 4mph /  6.4km/h 80% 0.00in /  0mm 0 W/m2
20:24 75.3 °F /  24.1 °C 68.9 °F /  20.5 °C 30.03in /  1016.8hPa South 2.5mph /  4km/h 3mph /  4.8km/h 80.5% 0.00in /  0mm 0 W/m2
20:29 75.1 °F /  23.9 °C 69.1 °F /  20.6 °C 30.03in /  1016.8hPa SW 3.7mph /  6km/h 3mph /  4.8km/h 81.4% 0.00in /  0mm 0 W/m2
20:34 74.8 °F /  23.8 °C 69.1 °F /  20.6 °C 30.03in /  1016.8hPa SSW 3.6mph /  5.8km/h 4mph /  6.4km/h 82.6% 0.00in /  0mm 0 W/m2
20:39 74.4 °F /  23.6 °C 69.1 °F /  20.6 °C 30.03in /  1016.8hPa South 3.5mph /  5.6km/h 2.5mph /  4km/h 83.4% 0.00in /  0mm 0 W/m2
20:44 74.1 °F /  23.4 °C 69 °F /  20.6 °C 30.03in /  1016.8hPa South 3.3mph /  5.3km/h 4mph /  6.4km/h 84% 0.00in /  0mm 0 W/m2
20:49 73.8 °F /  23.2 °C 69 °F /  20.6 °C 30.04in /  1017.2hPa SSE 5mph /  8km/h 4mph /  6.4km/h 85% 0.00in /  0mm 0 W/m2
20:54 73.6 °F /  23.1 °C 68.8 °F /  20.4 °C 30.04in /  1017.2hPa SSE 4mph /  6.4km/h 6mph /  9.7km/h 85% 0.00in /  0mm 0 W/m2
20:58 73.4 °F /  23 °C 68.9 °F /  20.5 °C 30.04in /  1017.2hPa SSE 3.5mph /  5.6km/h 5mph /  8km/h 85.7% 0.00in /  0mm 0 W/m2
21:04 73.2 °F /  22.9 °C 68.5 °F /  20.3 °C 30.04in /  1017.2hPa South 1.9mph /  3.1km/h 4mph /  6.4km/h 85.2% 0.00in /  0mm 0 W/m2
21:09 73.1 °F /  22.8 °C 68.6 °F /  20.3 °C 30.04in /  1017.2hPa SW 1.4mph /  2.3km/h 2mph /  3.2km/h 85.8% 0.00in /  0mm 0 W/m2
21:14 73 °F /  22.8 °C 68.5 °F /  20.3 °C 30.04in /  1017.2hPa SSW 2mph /  3.2km/h 2mph /  3.2km/h 86% 0.00in /  0mm 0 W/m2
21:19 72.9 °F /  22.7 °C 68.1 °F /  20.1 °C 30.04in /  1017.2hPa SSW 2.3mph /  3.7km/h 1.8mph /  2.9km/h 85.1% 0.00in /  0mm 0 W/m2
21:24 72.7 °F /  22.6 °C 68.2 °F /  20.1 °C 30.04in /  1017.2hPa SW 2.9mph /  4.7km/h 2.2mph /  3.5km/h 86% 0.00in /  0mm 0 W/m2
21:29 72.4 °F /  22.4 °C 68 °F /  20 °C 30.04in /  1017.2hPa SSW 3.1mph /  5km/h 4mph /  6.4km/h 86% 0.00in /  0mm 0 W/m2
21:34 72.1 °F /  22.3 °C 67.6 °F /  19.8 °C 30.04in /  1017.2hPa South 3.3mph /  5.3km/h 3mph /  4.8km/h 86% 0.00in /  0mm 0 W/m2
21:39 71.7 °F /  22.1 °C 67.6 °F /  19.8 °C 30.04in /  1017.2hPa South 3.8mph /  6.1km/h 4mph /  6.4km/h 86.7% 0.00in /  0mm 0 W/m2
21:44 71.5 °F /  21.9 °C 67.5 °F /  19.7 °C 30.04in /  1017.2hPa South 3.1mph /  5km/h 5mph /  8km/h 87.2% 0.00in /  0mm 0 W/m2
21:49 71.1 °F /  21.7 °C 67.4 °F /  19.7 °C 30.04in /  1017.2hPa SSE 3.8mph /  6.1km/h 2.9mph /  4.7km/h 88% 0.00in /  0mm 0 W/m2
21:54 70.9 °F /  21.6 °C 67.4 °F /  19.7 °C 30.04in /  1017.2hPa SSE 3.5mph /  5.6km/h 5mph /  8km/h 88.8% 0.00in /  0mm 0 W/m2
21:59 70.7 °F /  21.5 °C 67 °F /  19.4 °C 30.04in /  1017.2hPa SSE 3.1mph /  5km/h 5mph /  8km/h 88% 0.00in /  0mm 0 W/m2
22:04 70.7 °F /  21.5 °C 67 °F /  19.4 °C 30.04in /  1017.2hPa South 2.9mph /  4.7km/h 3mph /  4.8km/h 88% 0.00in /  0mm 0 W/m2
22:09 70.4 °F /  21.3 °C 67 °F /  19.4 °C 30.04in /  1017.2hPa South 3.6mph /  5.8km/h 4mph /  6.4km/h 89% 0.00in /  0mm 0 W/m2
22:14 70.3 °F /  21.3 °C 66.9 °F /  19.4 °C 30.05in /  1017.5hPa South 2.4mph /  3.9km/h 5mph /  8km/h 89% 0.00in /  0mm 0 W/m2
22:19 70.3 °F /  21.3 °C 66.9 °F /  19.4 °C 30.05in /  1017.5hPa West 2.2mph /  3.5km/h 3mph /  4.8km/h 89% 0.00in /  0mm 0 W/m2
22:24 70.2 °F /  21.2 °C 66.8 °F /  19.3 °C 30.05in /  1017.5hPa West 2.2mph /  3.5km/h 1.6mph /  2.6km/h 89% 0.00in /  0mm 0 W/m2
22:29 70.2 °F /  21.2 °C 66.8 °F /  19.3 °C 30.05in /  1017.5hPa WSW 3mph /  4.8km/h 2.5mph /  4km/h 89% 0.00in /  0mm 0 W/m2
22:34 70 °F /  21.1 °C 66.6 °F /  19.2 °C 30.05in /  1017.5hPa WSW 2.1mph /  3.4km/h 3mph /  4.8km/h 89% 0.00in /  0mm 0 W/m2
22:39 69.9 °F /  21.1 °C 66.5 °F /  19.2 °C 30.05in /  1017.5hPa WSW 0.9mph /  1.4km/h 3mph /  4.8km/h 89% 0.00in /  0mm 0 W/m2
22:44 69.8 °F /  21 °C 66.4 °F /  19.1 °C 30.05in /  1017.5hPa WSW 0.4mph /  0.6km/h 1mph /  1.6km/h 89% 0.00in /  0mm 0 W/m2
22:49 69.7 °F /  20.9 °C 66.3 °F /  19.1 °C 30.05in /  1017.5hPa SW 2mph /  3.2km/h 2mph /  3.2km/h 89% 0.00in /  0mm 0 W/m2
22:54 69.6 °F /  20.9 °C 66.3 °F /  19.1 °C 30.05in /  1017.5hPa WSW 1.1mph /  1.8km/h 2mph /  3.2km/h 89.2% 0.00in /  0mm 0 W/m2
22:59 69.5 °F /  20.8 °C 66.4 °F /  19.1 °C 30.05in /  1017.5hPa WSW 2.7mph /  4.3km/h 2mph /  3.2km/h 89.7% 0.00in /  0mm 0 W/m2
23:04 69.4 °F /  20.8 °C 66.1 °F /  18.9 °C 30.05in /  1017.5hPa SW 2.3mph /  3.7km/h 3mph /  4.8km/h 89% 0.00in /  0mm 0 W/m2
23:09 69.4 °F /  20.8 °C 66.1 °F /  18.9 °C 30.06in /  1017.8hPa SW 2mph /  3.2km/h 2mph /  3.2km/h 89% 0.00in /  0mm 0 W/m2
23:14 69.4 °F /  20.8 °C 66.1 °F /  18.9 °C 30.06in /  1017.8hPa ENE 3mph /  4.8km/h 2.2mph /  3.5km/h 89.3% 0.00in /  0mm 0 W/m2
23:19 69.3 °F /  20.7 °C 66.2 °F /  19 °C 30.06in /  1017.8hPa South 3.1mph /  5km/h 3mph /  4.8km/h 90% 0.00in /  0mm 0 W/m2
23:24 69.2 °F /  20.7 °C 66.1 °F /  18.9 °C 30.06in /  1017.8hPa South 2.3mph /  3.7km/h 3mph /  4.8km/h 90% 0.00in /  0mm 0 W/m2
23:29 69.1 °F /  20.6 °C 66.2 °F /  19 °C 30.06in /  1017.8hPa SSE 1.9mph /  3.1km/h 2mph /  3.2km/h 90.7% 0.00in /  0mm 0 W/m2
23:34 68.9 °F /  20.5 °C 66.2 °F /  19 °C 30.06in /  1017.8hPa SE 2.3mph /  3.7km/h 2mph /  3.2km/h 91% 0.00in /  0mm 0 W/m2
23:39 68.9 °F /  20.5 °C 66.2 °F /  19 °C 30.06in /  1017.8hPa SSE 2.2mph /  3.5km/h 2mph /  3.2km/h 91% 0.00in /  0mm 0 W/m2
23:44 68.8 °F /  20.4 °C 66.1 °F /  18.9 °C 30.06in /  1017.8hPa SSE 2.2mph /  3.5km/h 2mph /  3.2km/h 91% 0.00in /  0mm 0 W/m2
23:49 68.7 °F /  20.4 °C 66 °F /  18.9 °C 30.06in /  1017.8hPa WSW 1.9mph /  3.1km/h 2mph /  3.2km/h 91% 0.00in /  0mm 0 W/m2
23:54 68.6 °F /  20.3 °C 65.9 °F /  18.8 °C 30.06in /  1017.8hPa NW 1.3mph /  2.1km/h 2mph /  3.2km/h 91% 0.00in /  0mm 0 W/m2
23:59 68.5 °F /  20.3 °C 66.3 °F /  19.1 °C 30.06in /  1017.8hPa NE 2.4mph /  3.9km/h 2mph /  3.2km/h 92.6% 0.00in /  0mm 0 W/m2
Knjazevac, Serbia
Compliments of Weather Underground - 2 mb